Time;durP1;ratioP1;P1;durP2;ratioP2;P2;SDS_P1;SDS_P2;PMS_P1;PMS_P2;Temp;Humidity;BMP_temperature;BMP_pressure;BME280_temperature;BME280_humidity;BME280_pressure;Samples;Min_cycle;Max_cycle;Signal;HPM_P1;HPM_P2
2024/04/16 00:00:53;;;;;;;4.28;1.48;;;5.60;99.90;;;;;;13315177;26;20028;-37
2024/04/16 00:06:55;;;;;;;4.35;1.58;;;5.60;99.90;;;;;;13329982;26;20000;-36
2024/04/16 00:12:57;;;;;;;1.98;1.10;;;5.50;99.90;;;;;;13332231;26;20004;-37
2024/04/16 00:18:59;;;;;;;1.88;0.70;;;5.30;99.90;;;;;;13315203;26;20449;-36
2024/04/16 00:25:02;;;;;;;1.10;0.60;;;5.10;99.90;;;;;;13315650;26;20356;-36
2024/04/16 00:31:04;;;;;;;0.28;0.25;;;5.00;99.90;;;;;;13318023;26;20005;-37
2024/04/16 00:37:06;;;;;;;0.45;0.30;;;4.50;99.90;;;;;;13325831;26;20015;-35
2024/04/16 00:43:19;;;;;;;0.60;0.20;;;4.70;99.90;;;;;;13303601;26;20024;-36
2024/04/16 00:49:21;;;;;;;0.75;0.20;;;4.50;99.90;;;;;;13317628;26;20030;-36
2024/04/16 00:55:24;;;;;;;0.40;0.30;;;4.20;99.90;;;;;;13331769;26;20020;-37
2024/04/16 01:01:26;;;;;;;0.45;0.32;;;4.30;99.90;;;;;;13303437;26;20012;-36
2024/04/16 01:07:28;;;;;;;0.75;0.40;;;4.20;99.90;;;;;;13314200;26;20012;-35
2024/04/16 01:13:30;;;;;;;1.23;0.70;;;4.30;99.90;;;;;;13330622;26;20008;-35
2024/04/16 01:19:32;;;;;;;1.88;1.13;;;4.50;99.90;;;;;;13308333;26;20012;-35
2024/04/16 01:25:35;;;;;;;3.08;2.00;;;4.60;99.90;;;;;;13323413;26;20019;-36
2024/04/16 01:31:37;;;;;;;5.63;3.13;;;4.70;99.90;;;;;;13306914;26;20395;-36
2024/04/16 01:37:39;;;;;;;6.05;3.67;;;4.70;99.90;;;;;;13331211;26;20007;-36
2024/04/16 01:43:41;;;;;;;5.65;4.10;;;4.80;99.90;;;;;;13288063;26;20013;-36
2024/04/16 01:49:43;;;;;;;8.18;5.03;;;4.70;99.90;;;;;;13340022;26;20461;-36
2024/04/16 01:55:45;;;;;;;8.93;5.80;;;4.80;99.90;;;;;;13335624;26;20023;-36
2024/04/16 02:01:47;;;;;;;10.65;6.13;;;4.80;99.90;;;;;;13308851;26;20073;-37
2024/04/16 02:07:50;;;;;;;10.25;6.65;;;4.90;99.90;;;;;;13325350;26;20479;-35
2024/04/16 02:13:55;;;;;;;11.32;6.05;;;5.00;99.90;;;;;;13332649;26;20011;-36
2024/04/16 02:19:57;;;;;;;12.32;6.07;;;5.10;99.90;;;;;;13328915;26;20012;-36
2024/04/16 02:25:59;;;;;;;13.95;6.40;;;5.10;99.90;;;;;;13300821;26;20471;-37
2024/04/16 02:32:01;;;;;;;10.55;5.65;;;5.10;99.90;;;;;;13315842;26;20714;-35
2024/04/16 02:38:03;;;;;;;11.90;5.10;;;5.30;99.90;;;;;;13320688;26;20019;-37
2024/04/16 02:44:05;;;;;;;8.63;3.72;;;5.30;99.90;;;;;;13299121;26;20015;-36
2024/04/16 02:50:07;;;;;;;10.45;3.60;;;5.40;99.90;;;;;;13308961;26;20012;-37
2024/04/16 02:56:09;;;;;;;9.00;3.13;;;5.50;99.90;;;;;;13311862;26;20039;-36
2024/04/16 03:02:11;;;;;;;8.93;2.97;;;5.60;99.90;;;;;;13322173;26;20055;-36
2024/04/16 03:08:13;;;;;;;13.15;3.40;;;5.50;99.90;;;;;;13301322;26;20009;-36
2024/04/16 03:14:15;;;;;;;7.78;2.85;;;5.40;99.90;;;;;;13313932;26;20073;-37
2024/04/16 03:20:17;;;;;;;12.73;2.45;;;5.50;99.90;;;;;;13298609;26;20415;-37
2024/04/16 03:26:19;;;;;;;7.82;2.33;;;5.50;99.90;;;;;;13325243;26;20047;-36
2024/04/16 03:32:21;;;;;;;9.73;2.40;;;5.60;99.90;;;;;;13293792;26;20519;-37
2024/04/16 03:38:24;;;;;;;12.10;2.92;;;5.50;99.90;;;;;;13308132;26;20019;-36
2024/04/16 03:44:26;;;;;;;11.32;2.63;;;5.50;99.90;;;;;;13285273;26;20005;-36
2024/04/16 03:50:27;;;;;;;12.02;2.65;;;5.50;99.90;;;;;;13291766;26;19996;-37
2024/04/16 03:56:30;;;;;;;9.85;2.08;;;5.40;99.90;;;;;;13318447;26;20005;-37
2024/04/16 04:02:32;;;;;;;8.07;1.90;;;5.50;99.90;;;;;;13305795;26;20026;-36
2024/04/16 04:08:34;;;;;;;6.38;1.60;;;5.40;99.90;;;;;;13310870;26;20005;-37
2024/04/16 04:14:36;;;;;;;9.50;1.77;;;5.30;99.90;;;;;;13297633;26;20437;-37
2024/04/16 04:20:42;;;;;;;7.72;1.85;;;5.30;99.90;;;;;;13331905;26;20084;-36
2024/04/16 04:26:45;;;;;;;10.35;1.90;;;5.30;99.90;;;;;;13315347;26;20077;-36
2024/04/16 04:32:51;;;;;;;5.97;1.95;;;5.40;99.90;;;;;;13311438;26;20134;-37
2024/04/16 04:38:53;;;;;;;3.83;1.88;;;5.50;99.90;;;;;;13315804;26;20001;-36
2024/04/16 04:44:55;;;;;;;7.35;3.10;;;5.60;99.90;;;;;;13299188;26;20460;-36
2024/04/16 04:50:57;;;;;;;7.15;3.00;;;5.40;99.90;;;;;;13330694;26;20040;-36
2024/04/16 04:56:59;;;;;;;6.28;3.15;;;5.50;99.90;;;;;;13337472;26;20073;-36
2024/04/16 05:03:01;;;;;;;8.82;3.58;;;5.50;99.90;;;;;;13325955;26;20004;-35
2024/04/16 05:09:06;;;;;;;6.75;3.20;;;5.60;99.90;;;;;;13332321;26;19997;-37
2024/04/16 05:15:08;;;;;;;7.05;3.55;;;5.50;99.90;;;;;;13315440;26;20019;-36
2024/04/16 05:21:11;;;;;;;5.78;3.30;;;5.90;99.90;;;;;;13297344;26;20019;-36
2024/04/16 05:27:13;;;;;;;9.10;3.53;;;5.70;99.90;;;;;;13303202;26;20099;-37
2024/04/16 05:33:15;;;;;;;8.20;3.42;;;5.90;99.90;;;;;;13320530;26;20098;-37
2024/04/16 05:39:17;;;;;;;6.78;3.65;;;5.90;99.90;;;;;;13323241;26;20004;-36
2024/04/16 05:45:19;;;;;;;6.72;4.30;;;5.80;99.90;;;;;;13247420;26;20006;-36
2024/04/16 05:51:21;;;;;;;7.38;3.92;;;5.90;99.90;;;;;;13320187;26;20051;-35
2024/04/16 05:57:23;;;;;;;8.95;4.18;;;5.80;99.90;;;;;;13324135;26;20044;-36
2024/04/16 06:03:25;;;;;;;7.90;4.10;;;5.80;99.90;;;;;;13296167;26;20024;-37
2024/04/16 06:09:27;;;;;;;6.40;4.60;;;5.70;99.90;;;;;;13319583;26;20085;-37
2024/04/16 06:15:29;;;;;;;6.80;4.40;;;5.80;99.90;;;;;;13320036;26;20048;-36
2024/04/16 06:21:31;;;;;;;8.27;4.78;;;5.80;99.90;;;;;;13316870;26;20643;-37
2024/04/16 06:27:34;;;;;;;9.52;4.68;;;5.70;99.90;;;;;;13307082;26;20024;-36
2024/04/16 06:33:36;;;;;;;9.68;5.00;;;5.80;99.90;;;;;;13296425;26;20779;-37
2024/04/16 06:39:39;;;;;;;7.05;4.95;;;5.90;99.90;;;;;;13292448;26;19996;-36
2024/04/16 06:45:41;;;;;;;7.45;3.97;;;6.20;99.90;;;;;;13287402;26;20371;-37
2024/04/16 06:51:43;;;;;;;5.63;3.88;;;6.60;99.90;;;;;;13322944;26;20601;-37
2024/04/16 06:57:45;;;;;;;7.15;3.78;;;6.60;99.90;;;;;;13311314;26;20547;-37
2024/04/16 07:03:49;;;;;;;5.72;3.67;;;6.70;99.90;;;;;;13333241;26;20005;-36
2024/04/16 07:09:51;;;;;;;5.25;3.72;;;6.80;99.90;;;;;;13324680;26;20008;-37
2024/04/16 07:15:53;;;;;;;8.85;4.63;;;6.70;99.90;;;;;;13303761;26;20052;-36
2024/04/16 07:21:55;;;;;;;8.20;4.20;;;6.70;99.90;;;;;;13301211;26;20019;-37
2024/04/16 07:27:57;;;;;;;10.23;4.15;;;6.70;99.90;;;;;;13313770;26;20023;-37
2024/04/16 07:33:59;;;;;;;9.73;4.65;;;6.80;99.90;;;;;;13302757;26;20000;-37
2024/04/16 07:40:02;;;;;;;7.13;3.60;;;7.00;99.90;;;;;;13325531;26;20009;-36
2024/04/16 07:46:04;;;;;;;8.93;3.22;;;7.20;99.90;;;;;;13290870;26;20009;-36
2024/04/16 07:52:06;;;;;;;5.57;2.80;;;7.20;99.90;;;;;;13324918;26;20383;-36
2024/04/16 07:58:08;;;;;;;4.68;2.38;;;7.50;99.90;;;;;;13326767;26;20099;-37
2024/04/16 08:04:10;;;;;;;4.85;2.10;;;7.30;99.90;;;;;;13324075;26;20004;-37
2024/04/16 08:10:12;;;;;;;4.07;1.90;;;7.00;99.90;;;;;;13327474;26;20047;-36
2024/04/16 08:16:14;;;;;;;3.75;1.80;;;7.20;99.90;;;;;;13325986;26;20011;-36
2024/04/16 08:22:16;;;;;;;6.55;2.10;;;7.50;99.90;;;;;;13306137;26;20004;-37
2024/04/16 08:28:18;;;;;;;8.40;1.65;;;7.60;99.90;;;;;;13318903;26;19997;-36
2024/04/16 08:34:20;;;;;;;2.80;1.30;;;7.70;99.90;;;;;;13316715;26;20019;-37
2024/04/16 08:40:23;;;;;;;4.25;1.67;;;7.70;99.90;;;;;;13319974;26;20008;-37
2024/04/16 08:46:26;;;;;;;3.47;1.70;;;7.30;99.90;;;;;;13302771;26;20849;-37
2024/04/16 08:52:31;;;;;;;3.38;1.70;;;7.20;99.90;;;;;;13297698;26;20484;-37
2024/04/16 08:58:33;;;;;;;5.50;1.80;;;7.10;99.90;;;;;;13311175;26;20004;-37
2024/04/16 09:04:37;;;;;;;2.80;1.42;;;7.00;99.90;;;;;;13320620;26;20000;-37
2024/04/16 09:10:43;;;;;;;2.73;1.10;;;6.80;99.90;;;;;;13322428;26;20345;-37
2024/04/16 09:16:46;;;;;;;1.85;1.00;;;6.60;99.90;;;;;;13329069;26;20081;-36
2024/04/16 09:22:51;;;;;;;1.35;0.88;;;6.60;99.90;;;;;;13309917;26;20599;-37
2024/04/16 09:28:52;;;;;;;1.23;0.70;;;6.80;99.90;;;;;;13310175;26;20005;-37
2024/04/16 09:34:54;;;;;;;4.32;1.38;;;7.40;99.90;;;;;;13318909;26;20008;-37
2024/04/16 09:40:57;;;;;;;1.65;0.90;;;7.50;99.90;;;;;;13321416;26;20084;-37
2024/04/16 09:47:00;;;;;;;1.35;0.80;;;7.30;99.90;;;;;;13272559;26;20051;-37
2024/04/16 09:53:04;;;;;;;1.77;1.00;;;7.60;99.90;;;;;;13314381;26;20480;-36
2024/04/16 09:59:07;;;;;;;4.33;0.70;;;7.80;99.90;;;;;;13327431;26;20005;-36
2024/04/16 10:05:15;;;;;;;2.58;0.88;;;7.50;99.90;;;;;;13317709;26;20015;-37
2024/04/16 10:11:18;;;;;;;1.55;1.00;;;7.40;99.90;;;;;;13323442;26;20575;-37
2024/04/16 10:17:32;;;;;;;;;;;7.30;99.90;;;;;;13342432;26;20051;-37
2024/04/16 10:23:40;;;;;;;1.58;0.70;;;6.90;99.90;;;;;;13321995;26;19933;-36
2024/04/16 10:29:42;;;;;;;0.55;0.50;;;7.20;99.90;;;;;;13336088;26;20018;-37
2024/04/16 10:35:45;;;;;;;0.68;0.40;;;6.90;99.90;;;;;;13319727;26;20008;-37
2024/04/16 10:41:52;;;;;;;1.30;0.50;;;7.30;99.90;;;;;;13320496;26;20019;-37
2024/04/16 10:47:54;;;;;;;0.40;0.30;;;7.30;99.90;;;;;;13282229;26;20023;-36
2024/04/16 10:54:07;;;;;;;0.55;0.40;;;7.30;99.90;;;;;;13336120;26;20020;-37
2024/04/16 11:00:10;;;;;;;0.47;0.32;;;7.60;99.90;;;;;;13335568;26;20054;-36
2024/04/16 11:06:12;;;;;;;0.80;0.40;;;7.90;99.90;;;;;;13325905;26;20016;-37
2024/04/16 11:12:14;;;;;;;0.40;0.32;;;8.30;99.90;;;;;;13302570;26;20025;-37
2024/04/16 11:18:17;;;;;;;0.85;0.32;;;8.20;99.90;;;;;;13307700;26;20054;-37
2024/04/16 11:24:20;;;;;;;0.60;0.50;;;7.80;99.90;;;;;;13340516;26;20011;-35
2024/04/16 11:30:22;;;;;;;0.30;0.30;;;7.30;99.90;;;;;;13312851;26;20016;-36
2024/04/16 11:36:24;;;;;;;0.50;0.30;;;7.40;99.90;;;;;;13325719;26;20008;-37
2024/04/16 11:42:26;;;;;;;2.25;0.47;;;7.60;99.90;;;;;;13333425;26;20048;-37
2024/04/16 11:48:33;;;;;;;1.83;0.40;;;8.10;99.90;;;;;;13293594;26;20041;-35
2024/04/16 11:54:36;;;;;;;0.65;0.30;;;8.60;99.90;;;;;;13338455;26;20019;-37
2024/04/16 12:00:38;;;;;;;0.40;0.40;;;9.70;99.90;;;;;;13327798;26;20012;-37
2024/04/16 12:06:40;;;;;;;0.65;0.50;;;9.90;99.90;;;;;;13336166;26;20448;-37
2024/04/16 12:12:42;;;;;;;0.98;0.43;;;10.50;99.90;;;;;;13329193;26;20040;-36
2024/04/16 12:18:44;;;;;;;0.88;0.50;;;9.80;99.90;;;;;;13325930;26;20033;-37
2024/04/16 12:24:46;;;;;;;0.80;0.47;;;9.70;99.90;;;;;;13323660;26;20469;-44
2024/04/16 12:30:48;;;;;;;0.73;0.40;;;9.10;99.90;;;;;;13337889;26;20000;-37
2024/04/16 12:36:50;;;;;;;1.50;0.40;;;9.20;99.90;;;;;;13313499;26;20027;-37
2024/04/16 12:42:52;;;;;;;1.05;0.50;;;9.40;99.90;;;;;;13324302;26;20000;-36
2024/04/16 12:48:56;;;;;;;2.60;0.60;;;9.30;99.90;;;;;;13257064;26;20528;-36
2024/04/16 12:54:58;;;;;;;0.37;0.37;;;9.10;99.90;;;;;;13318777;26;20077;-37
2024/04/16 13:01:00;;;;;;;0.63;0.40;;;9.20;99.90;;;;;;13336363;26;20757;-37
2024/04/16 13:07:04;;;;;;;1.40;0.63;;;9.10;99.90;;;;;;13333322;26;20623;-37
2024/04/16 13:13:05;;;;;;;0.87;0.50;;;9.20;99.90;;;;;;13320938;26;20460;-37
2024/04/16 13:19:08;;;;;;;0.80;0.60;;;9.20;99.90;;;;;;13337862;26;20008;-37
2024/04/16 13:25:10;;;;;;;1.08;0.70;;;9.30;99.90;;;;;;13330101;26;20019;-37
2024/04/16 13:31:12;;;;;;;1.10;0.50;;;10.00;99.90;;;;;;13314824;26;20008;-37
2024/04/16 13:37:14;;;;;;;0.98;0.70;;;10.80;99.90;;;;;;13318728;26;20020;-37
2024/04/16 13:43:17;;;;;;;1.20;0.80;;;11.40;99.90;;;;;;13311774;26;20023;-36
2024/04/16 13:49:19;;;;;;;3.95;1.02;;;11.90;99.90;;;;;;13303865;26;20451;-37
2024/04/16 13:55:21;;;;;;;1.40;0.95;;;11.90;99.90;;;;;;13346214;26;20005;-37
2024/04/16 14:01:23;;;;;;;3.53;1.27;;;11.40;99.90;;;;;;13332168;26;20077;-37
2024/04/16 14:07:25;;;;;;;2.10;1.05;;;11.20;99.90;;;;;;13338303;26;20015;-36
2024/04/16 14:13:28;;;;;;;2.58;1.30;;;11.40;99.90;;;;;;13303318;26;20016;-37
2024/04/16 14:19:30;;;;;;;2.08;1.25;;;11.10;99.90;;;;;;13329671;26;20060;-37
2024/04/16 14:25:32;;;;;;;2.30;1.70;;;10.40;99.90;;;;;;13327816;26;20027;-37
2024/04/16 14:31:34;;;;;;;5.40;2.40;;;10.00;99.90;;;;;;13335987;26;20031;-37
2024/04/16 14:37:36;;;;;;;4.22;2.80;;;10.30;99.90;;;;;;13301609;26;20004;-36
2024/04/16 14:43:38;;;;;;;3.88;2.40;;;10.60;99.90;;;;;;13297102;26;21535;-37
2024/04/16 14:49:40;;;;;;;3.63;2.90;;;10.80;99.90;;;;;;13315612;26;20363;-37
2024/04/16 14:55:43;;;;;;;5.82;2.72;;;10.40;99.90;;;;;;13330192;26;20029;-37
2024/04/16 15:01:45;;;;;;;4.15;3.17;;;10.90;99.90;;;;;;13295527;26;20102;-37
2024/04/16 15:07:47;;;;;;;3.95;3.05;;;10.90;99.90;;;;;;13330405;26;20012;-37
2024/04/16 15:13:49;;;;;;;4.18;3.05;;;11.10;99.90;;;;;;13330778;26;20000;-37
2024/04/16 15:19:51;;;;;;;4.30;3.25;;;11.10;99.90;;;;;;13309412;26;20097;-37
2024/04/16 15:25:53;;;;;;;3.75;2.78;;;11.40;99.90;;;;;;13303928;26;20089;-37
2024/04/16 15:31:55;;;;;;;3.42;2.40;;;11.30;99.90;;;;;;13332405;26;20000;-37
2024/04/16 15:37:57;;;;;;;3.17;2.30;;;10.80;99.90;;;;;;13347659;26;20011;-37
2024/04/16 15:43:59;;;;;;;4.00;2.47;;;10.80;99.90;;;;;;13281821;26;20077;-37
2024/04/16 15:50:01;;;;;;;9.13;5.03;;;10.60;99.90;;;;;;13326136;26;20001;-37
2024/04/16 15:56:03;;;;;;;3.88;2.38;;;10.30;99.90;;;;;;13328498;26;20600;-37
2024/04/16 16:02:05;;;;;;;3.00;2.08;;;10.20;99.90;;;;;;13329352;26;20000;-37
2024/04/16 16:08:07;;;;;;;3.45;1.67;;;10.20;99.90;;;;;;13322474;26;20058;-37
2024/04/16 16:14:09;;;;;;;2.58;1.20;;;10.40;99.90;;;;;;13275402;26;20009;-37
2024/04/16 16:20:11;;;;;;;1.60;0.90;;;10.20;99.90;;;;;;13336392;26;20000;-37
2024/04/16 16:26:13;;;;;;;1.77;1.20;;;10.00;99.90;;;;;;13327420;26;19996;-37
2024/04/16 16:32:18;;;;;;;1.95;1.20;;;10.60;99.90;;;;;;13333971;26;20015;-37
2024/04/16 16:38:20;;;;;;;2.60;1.33;;;11.10;99.90;;;;;;13331393;26;20378;-37
2024/04/16 16:44:23;;;;;;;1.80;1.20;;;11.20;99.90;;;;;;13277917;26;20028;-38
2024/04/16 16:50:25;;;;;;;2.35;1.10;;;11.10;99.90;;;;;;13320238;26;20059;-37
2024/04/16 16:56:28;;;;;;;2.33;1.40;;;10.60;99.90;;;;;;13309686;26;20348;-37
2024/04/16 17:02:30;;;;;;;2.00;1.05;;;10.20;99.90;;;;;;13327054;26;20028;-37
2024/04/16 17:08:33;;;;;;;1.30;1.00;;;9.90;99.90;;;;;;13326237;26;20012;-37
2024/04/16 17:14:34;;;;;;;1.40;0.82;;;9.80;99.90;;;;;;13322637;26;20334;-36
2024/04/16 17:20:39;;;;;;;1.00;0.60;;;9.70;99.90;;;;;;13325009;26;20023;-37
2024/04/16 17:26:43;;;;;;;1.38;0.63;;;9.40;99.90;;;;;;13344580;26;19995;-37
2024/04/16 17:32:45;;;;;;;1.98;0.90;;;9.40;99.90;;;;;;13338548;26;20016;-37
2024/04/16 17:38:47;;;;;;;1.15;0.60;;;9.30;99.90;;;;;;13331835;26;20453;-37
2024/04/16 17:44:49;;;;;;;3.55;0.77;;;9.20;99.90;;;;;;13260686;26;20745;-37
2024/04/16 17:51:04;;;;;;;1.20;0.63;;;9.00;99.90;;;;;;13319487;26;20651;-37
2024/04/16 17:57:06;;;;;;;2.47;0.80;;;8.90;99.90;;;;;;13310478;26;20483;-37
2024/04/16 18:03:08;;;;;;;2.28;0.90;;;9.00;99.90;;;;;;13324186;26;20012;-36
2024/04/16 18:09:10;;;;;;;1.73;1.00;;;8.90;99.90;;;;;;13328380;26;20428;-37
2024/04/16 18:15:13;;;;;;;1.83;1.00;;;8.70;99.90;;;;;;13294538;26;20126;-37
2024/04/16 18:21:16;;;;;;;1.45;0.90;;;8.50;99.90;;;;;;13312887;26;19997;-37
2024/04/16 18:27:18;;;;;;;2.85;1.27;;;8.40;99.90;;;;;;13312379;26;20004;-37
2024/04/16 18:33:20;;;;;;;2.65;1.55;;;8.30;99.90;;;;;;13334501;26;20001;-37
2024/04/16 18:39:23;;;;;;;2.80;1.58;;;8.30;99.90;;;;;;13328734;26;20060;-37
2024/04/16 18:45:24;;;;;;;3.53;1.52;;;8.20;99.90;;;;;;13261111;26;20023;-37
2024/04/16 18:51:26;;;;;;;3.08;1.92;;;8.20;99.90;;;;;;13328524;26;20487;-37
2024/04/16 18:57:28;;;;;;;2.88;1.77;;;8.20;99.90;;;;;;13324055;26;20033;-36
2024/04/16 19:03:31;;;;;;;3.03;1.90;;;8.20;99.90;;;;;;13323139;26;20019;-37
2024/04/16 19:09:33;;;;;;;4.25;2.08;;;8.10;99.90;;;;;;13321509;26;20046;-36
2024/04/16 19:15:36;;;;;;;3.60;2.20;;;8.10;99.90;;;;;;13335010;26;20054;-37
2024/04/16 19:21:38;;;;;;;3.70;2.15;;;8.20;99.90;;;;;;13341036;26;20018;-37
2024/04/16 19:27:40;;;;;;;4.70;2.17;;;8.10;99.90;;;;;;13329825;26;20019;-37
2024/04/16 19:33:47;;;;;;;4.47;2.50;;;8.10;99.90;;;;;;13336255;26;20008;-37
2024/04/16 19:39:49;;;;;;;4.78;2.45;;;8.00;99.90;;;;;;13331050;26;20000;-37
2024/04/16 19:45:51;;;;;;;7.88;2.88;;;8.00;99.90;;;;;;13281922;26;20044;-37
2024/04/16 19:51:54;;;;;;;4.60;2.47;;;7.90;99.90;;;;;;13313554;26;20004;-37
2024/04/16 19:57:58;;;;;;;4.53;2.90;;;7.90;99.90;;;;;;13307895;26;20000;-37
2024/04/16 20:04:00;;;;;;;4.15;2.58;;;7.90;99.90;;;;;;13316544;26;20004;-36
2024/04/16 20:10:03;;;;;;;6.70;3.20;;;7.80;99.90;;;;;;13317316;26;20333;-37
2024/04/16 20:16:10;;;;;;;5.00;2.88;;;7.80;99.90;;;;;;13322315;26;20019;-36
2024/04/16 20:22:13;;;;;;;5.03;2.70;;;7.90;99.90;;;;;;13327512;26;20004;-37
2024/04/16 20:28:15;;;;;;;4.25;2.53;;;7.90;99.90;;;;;;13334520;26;20008;-37
2024/04/16 20:34:17;;;;;;;6.20;2.90;;;8.00;99.90;;;;;;13321950;26;20032;-37
2024/04/16 20:40:19;;;;;;;7.68;3.00;;;7.90;99.90;;;;;;13298413;26;20566;-37
2024/04/16 20:46:21;;;;;;;5.22;2.67;;;7.60;99.90;;;;;;13266671;26;20004;-36
2024/04/16 20:52:24;;;;;;;6.50;2.90;;;7.50;99.90;;;;;;13322996;26;20019;-37
2024/04/16 20:58:27;;;;;;;5.65;2.70;;;7.50;99.90;;;;;;13329642;26;20452;-37
2024/04/16 21:04:29;;;;;;;5.88;2.60;;;7.40;99.90;;;;;;13328438;26;20356;-37
2024/04/16 21:10:31;;;;;;;7.50;3.40;;;7.40;99.90;;;;;;13309701;26;20459;-36
2024/04/16 21:16:33;;;;;;;5.93;2.75;;;7.30;99.90;;;;;;13297655;26;20009;-37
2024/04/16 21:22:35;;;;;;;7.03;2.88;;;7.30;99.90;;;;;;13308161;26;20000;-36
2024/04/16 21:28:37;;;;;;;5.35;2.50;;;7.30;99.90;;;;;;13309921;26;20024;-37
2024/04/16 21:34:39;;;;;;;4.50;2.50;;;7.30;99.90;;;;;;13319369;26;20103;-37
2024/04/16 21:40:41;;;;;;;6.70;2.35;;;7.30;99.90;;;;;;13316852;26;20004;-37
2024/04/16 21:46:44;;;;;;;4.88;2.47;;;7.30;99.90;;;;;;13269824;26;20556;-36
2024/04/16 21:52:46;;;;;;;6.10;2.40;;;7.30;99.90;;;;;;13310123;26;20000;-36
2024/04/16 21:58:48;;;;;;;9.18;2.58;;;7.30;99.90;;;;;;13290545;26;20127;-37
2024/04/16 22:04:50;;;;;;;6.75;2.75;;;7.30;99.90;;;;;;13323394;26;20019;-36
2024/04/16 22:10:59;;;;;;;6.88;2.25;;;7.20;99.90;;;;;;13330454;26;20009;-37
2024/04/16 22:17:01;;;;;;;6.10;2.75;;;7.30;99.90;;;;;;13320729;26;20000;-36
2024/04/16 22:23:03;;;;;;;8.25;2.50;;;7.20;99.90;;;;;;13327413;26;20044;-37
2024/04/16 22:29:05;;;;;;;8.13;2.35;;;7.30;99.90;;;;;;13333292;26;20070;-35
2024/04/16 22:35:07;;;;;;;10.82;2.72;;;7.20;99.90;;;;;;13332898;26;20004;-37
2024/04/16 22:41:09;;;;;;;7.43;2.75;;;7.30;99.90;;;;;;13279314;26;20005;-37
2024/04/16 22:47:11;;;;;;;9.27;2.92;;;7.30;99.90;;;;;;13280454;26;20104;-37
2024/04/16 22:53:14;;;;;;;6.20;2.60;;;7.30;99.90;;;;;;13322692;26;20012;-37
2024/04/16 22:59:16;;;;;;;8.18;2.72;;;7.40;99.90;;;;;;13318628;26;20862;-37
2024/04/16 23:05:18;;;;;;;6.55;3.40;;;7.30;99.90;;;;;;13322299;26;20015;-36
2024/04/16 23:11:20;;;;;;;14.25;3.90;;;7.10;99.90;;;;;;13315145;26;20016;-37
2024/04/16 23:17:22;;;;;;;7.82;2.88;;;7.10;99.90;;;;;;13328187;26;20170;-37
2024/04/16 23:23:24;;;;;;;11.02;3.00;;;7.20;99.90;;;;;;13241320;26;20025;-37
2024/04/16 23:29:27;;;;;;;12.43;2.88;;;7.00;99.90;;;;;;13290417;26;20081;-37
2024/04/16 23:35:28;;;;;;;9.98;2.47;;;7.10;99.90;;;;;;13309357;26;20461;-37
2024/04/16 23:41:30;;;;;;;7.35;2.45;;;6.90;99.90;;;;;;13319103;26;20032;-36
2024/04/16 23:47:32;;;;;;;15.90;2.72;;;7.00;99.90;;;;;;13240093;26;20040;-37
2024/04/16 23:53:34;;;;;;;9.00;2.05;;;6.90;99.90;;;;;;13319286;26;20000;-36
2024/04/16 23:59:36;;;;;;;7.95;1.88;;;6.70;99.90;;;;;;13317077;26;20012;-36
